sensor_id;sensor_type;location;lat;lon;timestamp;pressure;altitude;pressure_sealevel;temperature;humidity
63115;BME280;49208;50.874;6.466;2023-03-04T07:03:02;101374.38;;;1.50;100.00
63115;BME280;49208;50.874;6.466;2023-03-04T07:05:28;101367.41;;;1.52;100.00
63115;BME280;49208;50.874;6.466;2023-03-04T07:07:53;101377.94;;;1.54;100.00
63115;BME280;49208;50.874;6.466;2023-03-04T07:10:19;101376.22;;;1.57;100.00
63115;BME280;49208;50.874;6.466;2023-03-04T07:12:44;101378.91;;;1.60;100.00
63115;BME280;49208;50.874;6.466;2023-03-04T07:15:10;101383.34;;;1.65;100.00
63115;BME280;49208;50.874;6.466;2023-03-04T07:17:35;101379.03;;;1.68;100.00
63115;BME280;49208;50.874;6.466;2023-03-04T07:20:01;101386.06;;;1.71;100.00
63115;BME280;49208;50.874;6.466;2023-03-04T07:22:26;101385.22;;;1.73;100.00
63115;BME280;49208;50.874;6.466;2023-03-04T07:24:52;101385.25;;;1.76;100.00
63115;BME280;49208;50.874;6.466;2023-03-04T07:27:17;101391.41;;;1.78;100.00
63115;BME280;49208;50.874;6.466;2023-03-04T07:29:42;101386.22;;;1.81;100.00
63115;BME280;49208;50.874;6.466;2023-03-04T07:32:08;101400.25;;;1.84;100.00
63115;BME280;49208;50.874;6.466;2023-03-04T07:34:34;101395.97;;;1.90;100.00
63115;BME280;49208;50.874;6.466;2023-03-04T07:36:59;101396.03;;;1.95;100.00
63115;BME280;49208;50.874;6.466;2023-03-04T07:39:24;101393.47;;;1.98;100.00
63115;BME280;49208;50.874;6.466;2023-03-04T07:41:50;101389.16;;;2.01;100.00
63115;BME280;49208;50.874;6.466;2023-03-04T07:44:15;101397.09;;;2.06;100.00
63115;BME280;49208;50.874;6.466;2023-03-04T07:46:41;101406.78;;;2.10;100.00
63115;BME280;49208;50.874;6.466;2023-03-04T07:49:06;101405.06;;;2.12;100.00
63115;BME280;49208;50.874;6.466;2023-03-04T07:51:32;101405.09;;;2.15;100.00
63115;BME280;49208;50.874;6.466;2023-03-04T07:53:59;101407.78;;;2.18;100.00
63115;BME280;49208;50.874;6.466;2023-03-04T07:56:27;101406.06;;;2.20;100.00
63115;BME280;49208;50.874;6.466;2023-03-04T07:58:53;101405.22;;;2.23;100.00
63115;BME280;49208;50.874;6.466;2023-03-04T08:01:25;101408.78;;;2.27;100.00
63115;BME280;49208;50.874;6.466;2023-03-04T08:03:50;101400.94;;;2.30;100.00
63115;BME280;49208;50.874;6.466;2023-03-04T08:06:18;101402.72;;;2.34;100.00
63115;BME280;49208;50.874;6.466;2023-03-04T08:08:44;101396.63;;;2.36;100.00
63115;BME280;49208;50.874;6.466;2023-03-04T08:11:15;101396.72;;;2.41;100.00
63115;BME280;49208;50.874;6.466;2023-03-04T08:13:41;101405.53;;;2.46;100.00
63115;BME280;49208;50.874;6.466;2023-03-04T08:16:07;101399.47;;;2.52;100.00
63115;BME280;49208;50.874;6.466;2023-03-04T08:18:32;101406.56;;;2.59;100.00
63115;BME280;49208;50.874;6.466;2023-03-04T08:20:58;101397.88;;;2.65;100.00
63115;BME280;49208;50.874;6.466;2023-03-04T08:23:24;101405.88;;;2.72;100.00
63115;BME280;49208;50.874;6.466;2023-03-04T08:25:49;101408.56;;;2.78;100.00
63115;BME280;49208;50.874;6.466;2023-03-04T08:28:15;101406.00;;;2.86;100.00
63115;BME280;49208;50.874;6.466;2023-03-04T08:30:41;101414.88;;;2.93;100.00
63115;BME280;49208;50.874;6.466;2023-03-04T08:33:07;101409.69;;;3.02;100.00
63115;BME280;49208;50.874;6.466;2023-03-04T08:35:36;101415.94;;;3.12;100.00
63115;BME280;49208;50.874;6.466;2023-03-04T08:38:02;101410.78;;;3.21;100.00
63115;BME280;49208;50.874;6.466;2023-03-04T08:40:27;101416.09;;;3.27;100.00
63115;BME280;49208;50.874;6.466;2023-03-04T08:42:53;101409.13;;;3.34;100.00
63115;BME280;49208;50.874;6.466;2023-03-04T08:45:18;101410.94;;;3.39;100.00
63115;BME280;49208;50.874;6.466;2023-03-04T08:47:43;101414.53;;;3.46;100.00
63115;BME280;49208;50.874;6.466;2023-03-04T08:50:09;101420.72;;;3.54;100.00
63115;BME280;49208;50.874;6.466;2023-03-04T08:52:35;101426.94;;;3.61;99.77
63115;BME280;49208;50.874;6.466;2023-03-04T08:55:00;101427.88;;;3.66;98.94
63115;BME280;49208;50.874;6.466;2023-03-04T08:57:26;101427.03;;;3.72;99.32
63115;BME280;49208;50.874;6.466;2023-03-04T08:59:51;101423.56;;;3.76;98.74
63115;BME280;49208;50.874;6.466;2023-03-04T09:02:16;101421.84;;;3.81;99.30
63115;BME280;49208;50.874;6.466;2023-03-04T09:04:42;101416.59;;;3.85;98.97
63115;BME280;49208;50.874;6.466;2023-03-04T09:07:07;101421.03;;;3.91;99.08
63115;BME280;49208;50.874;6.466;2023-03-04T09:09:34;101422.81;;;3.94;99.04
63115;BME280;49208;50.874;6.466;2023-03-04T09:11:59;101416.66;;;3.92;98.83
63115;BME280;49208;50.874;6.466;2023-03-04T09:14:25;101425.47;;;3.92;99.43
63115;BME280;49208;50.874;6.466;2023-03-04T09:16:50;101414.91;;;3.94;98.96
63115;BME280;49208;50.874;6.466;2023-03-04T09:19:16;101414.94;;;3.98;99.73
63115;BME280;49208;50.874;6.466;2023-03-04T09:21:41;101416.75;;;4.04;99.85
63115;BME280;49208;50.874;6.466;2023-03-04T09:24:06;101420.28;;;4.11;99.56
63115;BME280;49208;50.874;6.466;2023-03-04T09:26:32;101414.19;;;4.16;99.28
63115;BME280;49208;50.874;6.466;2023-03-04T09:28:59;101414.25;;;4.27;99.41
63115;BME280;49208;50.874;6.466;2023-03-04T09:31:27;101407.28;;;4.41;99.82
63115;BME280;49208;50.874;6.466;2023-03-04T09:33:54;101407.38;;;4.55;99.75
63115;BME280;49208;50.874;6.466;2023-03-04T09:36:20;101401.25;;;4.64;99.01
63115;BME280;49208;50.874;6.466;2023-03-04T09:38:45;101403.97;;;4.79;98.49
63115;BME280;49208;50.874;6.466;2023-03-04T09:41:26;101401.47;;;5.49;98.95
63115;BME280;49208;50.874;6.466;2023-03-04T09:43:54;101397.00;;;6.31;96.33
63115;BME280;49208;50.874;6.466;2023-03-04T09:46:32;101394.94;;;7.06;91.14
63115;BME280;49208;50.874;6.466;2023-03-04T09:48:59;101392.81;;;7.55;85.70
63115;BME280;49208;50.874;6.466;2023-03-04T09:54:11;101388.13;;;7.87;82.33
63115;BME280;49208;50.874;6.466;2023-03-04T09:56:39;101390.84;;;7.83;81.42
63115;BME280;49208;50.874;6.466;2023-03-04T10:01:55;101388.25;;;7.77;80.56
63115;BME280;49208;50.874;6.466;2023-03-04T10:06:56;101387.47;;;7.61;79.74
63115;BME280;49208;50.874;6.466;2023-03-04T10:09:27;101384.94;;;7.47;78.60
63115;BME280;49208;50.874;6.466;2023-03-04T10:12:04;101388.69;;;7.17;78.33
63115;BME280;49208;50.874;6.466;2023-03-04T10:14:36;101387.97;;;6.88;79.27
63115;BME280;49208;50.874;6.466;2023-03-04T10:17:09;101388.94;;;6.71;79.92
63115;BME280;49208;50.874;6.466;2023-03-04T10:20:00;101381.81;;;6.82;81.14
63115;BME280;49208;50.874;6.466;2023-03-04T10:22:36;101378.22;;;7.00;80.68
63115;BME280;49208;50.874;6.466;2023-03-04T10:27:51;101376.72;;;7.79;79.51
63115;BME280;49208;50.874;6.466;2023-03-04T10:33:18;101372.41;;;7.71;76.92
63115;BME280;49208;50.874;6.466;2023-03-04T10:35:47;101372.50;;;7.58;76.57
63115;BME280;49208;50.874;6.466;2023-03-04T10:38:15;101371.69;;;7.52;76.67
63115;BME280;49208;50.874;6.466;2023-03-04T10:40:43;101366.38;;;7.50;77.19
63115;BME280;49208;50.874;6.466;2023-03-04T10:43:17;101363.81;;;7.39;76.37
63115;BME280;49208;50.874;6.466;2023-03-04T10:45:42;101363.91;;;7.27;76.28
63115;BME280;49208;50.874;6.466;2023-03-04T10:48:20;101358.75;;;7.07;77.32
63115;BME280;49208;50.874;6.466;2023-03-04T10:50:46;101354.47;;;6.86;76.90
63115;BME280;49208;50.874;6.466;2023-03-04T10:53:24;101360.69;;;6.76;78.90
63115;BME280;49208;50.874;6.466;2023-03-04T10:55:52;101353.59;;;6.87;81.12
63115;BME280;49208;50.874;6.466;2023-03-04T10:58:19;101362.41;;;6.84;80.54
63115;BME280;49208;50.874;6.466;2023-03-04T11:00:59;101359.78;;;6.78;80.82
63115;BME280;49208;50.874;6.466;2023-03-04T11:06:22;101359.97;;;6.38;80.94
63115;BME280;49208;50.874;6.466;2023-03-04T11:08:55;101360.88;;;6.37;81.92
63115;BME280;49208;50.874;6.466;2023-03-04T11:11:37;101357.31;;;6.37;82.13
63115;BME280;49208;50.874;6.466;2023-03-04T11:14:33;101353.72;;;6.58;82.24
63115;BME280;49208;50.874;6.466;2023-03-04T11:17:16;101344.91;;;6.60;81.55
63115;BME280;49208;50.874;6.466;2023-03-04T11:19:45;101343.97;;;6.66;79.98
63115;BME280;49208;50.874;6.466;2023-03-04T11:22:16;101339.63;;;6.60;79.56
63115;BME280;49208;50.874;6.466;2023-03-04T11:24:43;101340.47;;;6.59;80.23
63115;BME280;49208;50.874;6.466;2023-03-04T11:27:17;101346.69;;;6.51;80.59
63115;BME280;49208;50.874;6.466;2023-03-04T11:29:54;101343.22;;;6.38;81.25
63115;BME280;49208;50.874;6.466;2023-03-04T11:32:28;101334.47;;;6.23;81.54
63115;BME280;49208;50.874;6.466;2023-03-04T11:37:56;101335.31;;;6.28;83.49
63115;BME280;49208;50.874;6.466;2023-03-04T11:40:53;101332.59;;;6.47;80.16
63115;BME280;49208;50.874;6.466;2023-03-04T11:43:36;101331.72;;;6.50;78.82
63115;BME280;49208;50.874;6.466;2023-03-04T11:49:06;101330.88;;;6.38;81.17
63115;BME280;49208;50.874;6.466;2023-03-04T11:54:33;101318.53;;;6.40;81.37
63115;BME280;49208;50.874;6.466;2023-03-04T11:59:56;101315.69;;;6.79;81.46
63115;BME280;49208;50.874;6.466;2023-03-04T12:03:02;101310.25;;;7.00;79.01
63115;BME280;49208;50.874;6.466;2023-03-04T12:11:11;101307.81;;;6.71;78.27
63115;BME280;49208;50.874;6.466;2023-03-04T12:41:40;101272.56;;;6.60;82.59
63115;BME280;49208;50.874;6.466;2023-03-04T12:44:16;101261.09;;;6.67;82.87
63115;BME280;49208;50.874;6.466;2023-03-04T12:47:06;101262.81;;;6.73;83.20
63115;BME280;49208;50.874;6.466;2023-03-04T12:55:01;101248.69;;;6.77;82.47
63115;BME280;49208;50.874;6.466;2023-03-04T12:57:28;101255.78;;;6.68;82.61
63115;BME280;49208;50.874;6.466;2023-03-04T13:00:20;101247.91;;;6.62;83.67
63115;BME280;49208;50.874;6.466;2023-03-04T13:03:03;101248.81;;;6.57;83.50
63115;BME280;49208;50.874;6.466;2023-03-04T13:10:49;101233.13;;;6.20;84.73
63115;BME280;49208;50.874;6.466;2023-03-04T13:13:35;101237.53;;;6.16;84.85
63115;BME280;49208;50.874;6.466;2023-03-04T13:16:33;101235.84;;;6.12;85.18
63115;BME280;49208;50.874;6.466;2023-03-04T13:19:00;101227.91;;;6.11;85.45
63115;BME280;49208;50.874;6.466;2023-03-04T13:21:29;101234.06;;;6.10;86.19
63115;BME280;49208;50.874;6.466;2023-03-04T13:23:57;101230.53;;;6.15;86.63
63115;BME280;49208;50.874;6.466;2023-03-04T13:26:28;101226.94;;;6.22;85.91
63115;BME280;49208;50.874;6.466;2023-03-04T13:32:44;101215.38;;;6.45;85.32
63115;BME280;49208;50.874;6.466;2023-03-04T13:34:51;101218.00;;;6.46;84.98
63115;BME280;49208;50.874;6.466;2023-03-04T13:37:35;101214.50;;;6.46;84.02
63115;BME280;49208;50.874;6.466;2023-03-04T13:42:45;101215.41;;;6.40;84.40
63115;BME280;49208;50.874;6.466;2023-03-04T13:47:58;101211.06;;;6.33;84.22
63115;BME280;49208;50.874;6.466;2023-03-04T13:50:31;101204.03;;;6.26;84.59
63115;BME280;49208;50.874;6.466;2023-03-04T13:53:19;101202.28;;;6.20;85.56
63115;BME280;49208;50.874;6.466;2023-03-04T13:59:00;101203.03;;;6.44;85.88
63115;BME280;49208;50.874;6.466;2023-03-04T14:01:31;101202.13;;;6.48;84.57
63115;BME280;49208;50.874;6.466;2023-03-04T14:03:58;101197.72;;;6.47;84.10
63115;BME280;49208;50.874;6.466;2023-03-04T14:06:29;101195.97;;;6.44;84.44
63115;BME280;49208;50.874;6.466;2023-03-04T14:08:55;101192.50;;;6.38;84.20
63115;BME280;49208;50.874;6.466;2023-03-04T14:11:36;101189.03;;;6.28;84.32
63115;BME280;49208;50.874;6.466;2023-03-04T14:14:09;101185.56;;;6.21;85.20
63115;BME280;49208;50.874;6.466;2023-03-04T14:16:38;101189.09;;;6.19;86.52
63115;BME280;49208;50.874;6.466;2023-03-04T14:19:11;101185.63;;;6.11;86.61
63115;BME280;49208;50.874;6.466;2023-03-04T14:21:43;101172.44;;;6.06;86.55
63115;BME280;49208;50.874;6.466;2023-03-04T14:24:13;101167.16;;;6.03;86.60
63115;BME280;49208;50.874;6.466;2023-03-04T14:26:38;101172.47;;;6.00;86.62
63115;BME280;49208;50.874;6.466;2023-03-04T14:29:19;101174.22;;;5.95;86.53
63115;BME280;49208;50.874;6.466;2023-03-04T14:31:45;101176.84;;;5.93;86.85
63115;BME280;49208;50.874;6.466;2023-03-04T14:34:18;101171.59;;;5.87;86.97
63115;BME280;49208;50.874;6.466;2023-03-04T14:36:45;101166.34;;;5.85;87.92
63115;BME280;49208;50.874;6.466;2023-03-04T14:39:15;101160.16;;;5.90;87.99
63115;BME280;49208;50.874;6.466;2023-03-04T14:41:43;101161.00;;;5.93;87.40
63115;BME280;49208;50.874;6.466;2023-03-04T14:44:30;101158.34;;;5.99;87.18
63115;BME280;49208;50.874;6.466;2023-03-04T14:47:10;101158.34;;;5.99;87.03
63115;BME280;49208;50.874;6.466;2023-03-04T14:49:39;101152.19;;;5.99;87.28
63115;BME280;49208;50.874;6.466;2023-03-04T14:52:46;101152.19;;;5.94;86.79
63115;BME280;49208;50.874;6.466;2023-03-04T14:57:40;101138.09;;;5.92;87.13
63115;BME280;49208;50.874;6.466;2023-03-04T15:00:23;101136.34;;;5.91;87.57
63115;BME280;49208;50.874;6.466;2023-03-04T15:02:59;101136.38;;;5.85;87.39
63115;BME280;49208;50.874;6.466;2023-03-04T15:05:29;101137.28;;;5.84;87.72
63115;BME280;49208;50.874;6.466;2023-03-04T15:08:00;101129.34;;;5.82;88.15
63115;BME280;49208;50.874;6.466;2023-03-04T15:10:35;101131.13;;;5.80;88.09
63115;BME280;49208;50.874;6.466;2023-03-04T15:13:05;101130.25;;;5.78;89.05
63115;BME280;49208;50.874;6.466;2023-03-04T15:15:44;101124.09;;;5.78;89.50
63115;BME280;49208;50.874;6.466;2023-03-04T15:18:25;101126.72;;;5.78;88.25
63115;BME280;49208;50.874;6.466;2023-03-04T15:21:23;101117.94;;;5.76;88.78
63115;BME280;49208;50.874;6.466;2023-03-04T15:23:50;101115.28;;;5.76;89.15
63115;BME280;49208;50.874;6.466;2023-03-04T15:26:15;101113.53;;;5.76;88.94
63115;BME280;49208;50.874;6.466;2023-03-04T15:28:41;101108.25;;;5.75;89.62
63115;BME280;49208;50.874;6.466;2023-03-04T15:31:15;101104.75;;;5.70;89.77
63115;BME280;49208;50.874;6.466;2023-03-04T15:33:41;101106.53;;;5.67;89.92
63115;BME280;49208;50.874;6.466;2023-03-04T15:36:11;101118.88;;;5.62;90.39
63115;BME280;49208;50.874;6.466;2023-03-04T15:38:40;101111.84;;;5.60;90.11
63115;BME280;49208;50.874;6.466;2023-03-04T15:41:09;101111.88;;;5.55;90.52
63115;BME280;49208;50.874;6.466;2023-03-04T15:43:35;101111.91;;;5.52;90.39
63115;BME280;49208;50.874;6.466;2023-03-04T15:46:01;101105.75;;;5.49;90.32
63115;BME280;49208;50.874;6.466;2023-03-04T15:48:26;101112.78;;;5.48;90.92
63115;BME280;49208;50.874;6.466;2023-03-04T15:50:57;101108.38;;;5.45;91.15
63115;BME280;49208;50.874;6.466;2023-03-04T15:53:31;101109.28;;;5.43;90.81
63115;BME280;49208;50.874;6.466;2023-03-04T15:55:57;101110.16;;;5.39;91.30
63115;BME280;49208;50.874;6.466;2023-03-04T15:58:22;101114.56;;;5.38;91.44
63115;BME280;49208;50.874;6.466;2023-03-04T16:00:48;101111.94;;;5.35;92.27
63115;BME280;49208;50.874;6.466;2023-03-04T16:03:15;101110.19;;;5.34;92.18
63115;BME280;49208;50.874;6.466;2023-03-04T16:05:42;101111.06;;;5.33;92.32
63115;BME280;49208;50.874;6.466;2023-03-04T16:08:14;101107.53;;;5.33;92.62
63115;BME280;49208;50.874;6.466;2023-03-04T16:10:41;101107.56;;;5.30;93.26
63115;BME280;49208;50.874;6.466;2023-03-04T16:13:21;101111.06;;;5.27;93.88
63115;BME280;49208;50.874;6.466;2023-03-04T16:15:46;101112.00;;;5.23;93.91
63115;BME280;49208;50.874;6.466;2023-03-04T16:18:13;101109.34;;;5.23;94.33
63115;BME280;49208;50.874;6.466;2023-03-04T16:20:41;101111.97;;;5.18;95.02
63115;BME280;49208;50.874;6.466;2023-03-04T16:23:12;101113.75;;;5.16;95.46
63115;BME280;49208;50.874;6.466;2023-03-04T16:25:42;101113.78;;;5.13;96.10
63115;BME280;49208;50.874;6.466;2023-03-04T16:28:10;101104.13;;;5.11;96.00
63115;BME280;49208;50.874;6.466;2023-03-04T16:30:35;101104.97;;;5.08;96.47
63115;BME280;49208;50.874;6.466;2023-03-04T16:33:01;101105.00;;;5.05;97.03
63115;BME280;49208;50.874;6.466;2023-03-04T16:35:26;101105.88;;;5.01;97.39
63115;BME280;49208;50.874;6.466;2023-03-04T16:37:53;101102.38;;;4.99;97.50
63115;BME280;49208;50.874;6.466;2023-03-04T16:40:24;101105.91;;;4.95;98.19
63115;BME280;49208;50.874;6.466;2023-03-04T16:42:50;101104.16;;;4.92;98.66
63115;BME280;49208;50.874;6.466;2023-03-04T16:45:17;101112.91;;;4.90;98.49
63115;BME280;49208;50.874;6.466;2023-03-04T16:47:43;101107.66;;;4.88;99.39
63115;BME280;49208;50.874;6.466;2023-03-04T16:50:14;101107.66;;;4.85;99.49
63115;BME280;49208;50.874;6.466;2023-03-04T16:52:42;101111.19;;;4.82;99.67
63115;BME280;49208;50.874;6.466;2023-03-04T16:55:15;101102.38;;;4.79;100.00
63115;BME280;49208;50.874;6.466;2023-03-04T16:57:41;101105.91;;;4.76;100.00
63115;BME280;49208;50.874;6.466;2023-03-04T17:00:07;101105.03;;;4.74;100.00
63115;BME280;49208;50.874;6.466;2023-03-04T17:02:33;101105.03;;;4.74;100.00
63115;BME280;49208;50.874;6.466;2023-03-04T17:04:58;101098.88;;;4.71;100.00
63115;BME280;49208;50.874;6.466;2023-03-04T17:07:23;101099.78;;;4.71;100.00
63115;BME280;49208;50.874;6.466;2023-03-04T17:09:49;101092.75;;;4.70;100.00
63115;BME280;49208;50.874;6.466;2023-03-04T17:12:14;101093.63;;;4.68;100.00
63115;BME280;49208;50.874;6.466;2023-03-04T17:14:40;101095.38;;;4.64;100.00
63115;BME280;49208;50.874;6.466;2023-03-04T17:17:05;101089.22;;;4.63;100.00
63115;BME280;49208;50.874;6.466;2023-03-04T17:19:31;101084.84;;;4.61;100.00
63115;BME280;49208;50.874;6.466;2023-03-04T17:22:00;101091.84;;;4.60;100.00
63115;BME280;49208;50.874;6.466;2023-03-04T17:24:27;101086.59;;;4.59;100.00
63115;BME280;49208;50.874;6.466;2023-03-04T17:26:52;101088.38;;;4.57;100.00
63115;BME280;49208;50.874;6.466;2023-03-04T17:29:18;101090.09;;;4.56;100.00
63115;BME280;49208;50.874;6.466;2023-03-04T17:31:43;101090.09;;;4.56;100.00
63115;BME280;49208;50.874;6.466;2023-03-04T17:34:09;101089.25;;;4.57;100.00
63115;BME280;49208;50.874;6.466;2023-03-04T17:36:34;101090.09;;;4.58;100.00
63115;BME280;49208;50.874;6.466;2023-03-04T17:39:01;101094.50;;;4.57;100.00
63115;BME280;49208;50.874;6.466;2023-03-04T17:41:27;101099.78;;;4.59;100.00
63115;BME280;49208;50.874;6.466;2023-03-04T17:43:53;101098.88;;;4.58;100.00
63115;BME280;49208;50.874;6.466;2023-03-04T17:46:21;101098.88;;;4.58;100.00
63115;BME280;49208;50.874;6.466;2023-03-04T17:48:47;101099.78;;;4.57;100.00
63115;BME280;49208;50.874;6.466;2023-03-04T17:51:13;101098.91;;;4.57;100.00
63115;BME280;49208;50.874;6.466;2023-03-04T17:53:39;101107.69;;;4.59;100.00
63115;BME280;49208;50.874;6.466;2023-03-04T17:56:06;101103.28;;;4.56;100.00
63115;BME280;49208;50.874;6.466;2023-03-04T17:58:32;101112.09;;;4.57;100.00
63115;BME280;49208;50.874;6.466;2023-03-04T18:01:01;101107.69;;;4.56;100.00
63115;BME280;49208;50.874;6.466;2023-03-04T18:03:27;101106.81;;;4.57;100.00
63115;BME280;49208;50.874;6.466;2023-03-04T18:05:52;101113.84;;;4.58;100.00
63115;BME280;49208;50.874;6.466;2023-03-04T18:08:17;101112.09;;;4.57;100.00
63115;BME280;49208;50.874;6.466;2023-03-04T18:10:43;101109.47;;;4.57;100.00
63115;BME280;49208;50.874;6.466;2023-03-04T18:13:08;101105.91;;;4.56;100.00
63115;BME280;49208;50.874;6.466;2023-03-04T18:15:34;101107.69;;;4.57;100.00
63115;BME280;49208;50.874;6.466;2023-03-04T18:17:59;101100.66;;;4.58;100.00
63115;BME280;49208;50.874;6.466;2023-03-04T18:20:24;101104.19;;;4.57;100.00
63115;BME280;49208;50.874;6.466;2023-03-04T18:22:50;101101.53;;;4.55;100.00
63115;BME280;49208;50.874;6.466;2023-03-04T18:25:15;101098.91;;;4.57;100.00
63115;BME280;49208;50.874;6.466;2023-03-04T18:27:41;101106.81;;;4.57;100.00
63115;BME280;49208;50.874;6.466;2023-03-04T18:30:08;101112.06;;;4.54;100.00
63115;BME280;49208;50.874;6.466;2023-03-04T18:32:34;101114.72;;;4.52;100.00
63115;BME280;49208;50.874;6.466;2023-03-04T18:35:00;101109.47;;;4.51;100.00
63115;BME280;49208;50.874;6.466;2023-03-04T18:37:25;101104.16;;;4.48;100.00
63115;BME280;49208;50.874;6.466;2023-03-04T18:39:50;101108.56;;;4.45;100.00
63115;BME280;49208;50.874;6.466;2023-03-04T18:42:16;101102.41;;;4.43;100.00
63115;BME280;49208;50.874;6.466;2023-03-04T18:44:41;101101.53;;;4.43;100.00
63115;BME280;49208;50.874;6.466;2023-03-04T18:47:06;101105.03;;;4.42;100.00
63115;BME280;49208;50.874;6.466;2023-03-04T18:49:32;101105.94;;;4.45;100.00
63115;BME280;49208;50.874;6.466;2023-03-04T18:51:58;101103.28;;;4.45;100.00
63115;BME280;49208;50.874;6.466;2023-03-04T18:54:23;101101.53;;;4.46;100.00
63115;BME280;49208;50.874;6.466;2023-03-04T18:56:54;101101.53;;;4.48;100.00
63115;BME280;49208;50.874;6.466;2023-03-04T18:59:24;101109.44;;;4.48;100.00
63115;BME280;49208;50.874;6.466;2023-03-04T19:01:53;101094.53;;;4.47;100.00
63115;BME280;49208;50.874;6.466;2023-03-04T19:04:20;101104.16;;;4.46;100.00
63115;BME280;49208;50.874;6.466;2023-03-04T19:06:47;101099.78;;;4.45;100.00
63115;BME280;49208;50.874;6.466;2023-03-04T19:09:12;101101.56;;;4.44;100.00
63115;BME280;49208;50.874;6.466;2023-03-04T19:11:38;101102.41;;;4.42;100.00
63115;BME280;49208;50.874;6.466;2023-03-04T19:14:03;101106.81;;;4.41;100.00
63115;BME280;49208;50.874;6.466;2023-03-04T19:16:30;101098.00;;;4.39;100.00
63115;BME280;49208;50.874;6.466;2023-03-04T19:18:56;101100.66;;;4.38;100.00
63115;BME280;49208;50.874;6.466;2023-03-04T19:21:21;101100.66;;;4.39;100.00
63115;BME280;49208;50.874;6.466;2023-03-04T19:23:46;101101.53;;;4.37;100.00
63115;BME280;49208;50.874;6.466;2023-03-04T19:26:12;101109.44;;;4.35;100.00
63115;BME280;49208;50.874;6.466;2023-03-04T19:28:38;101106.81;;;4.34;100.00
63115;BME280;49208;50.874;6.466;2023-03-04T19:31:08;101111.22;;;4.32;100.00
63115;BME280;49208;50.874;6.466;2023-03-04T19:33:35;101111.19;;;4.30;100.00
63115;BME280;49208;50.874;6.466;2023-03-04T19:36:02;101113.81;;;4.27;100.00
63115;BME280;49208;50.874;6.466;2023-03-04T19:38:29;101119.09;;;4.24;100.00
63115;BME280;49208;50.874;6.466;2023-03-04T19:40:55;101116.44;;;4.21;100.00
63115;BME280;49208;50.874;6.466;2023-03-04T19:43:20;101117.34;;;4.20;100.00
63115;BME280;49208;50.874;6.466;2023-03-04T19:45:53;101119.09;;;4.16;100.00
63115;BME280;49208;50.874;6.466;2023-03-04T19:48:19;101115.56;;;4.14;100.00
63115;BME280;49208;50.874;6.466;2023-03-04T19:50:45;101122.59;;;4.14;100.00
63115;BME280;49208;50.874;6.466;2023-03-04T19:53:10;101120.84;;;4.11;100.00
63115;BME280;49208;50.874;6.466;2023-03-04T19:55:43;101127.88;;;4.09;100.00
63115;BME280;49208;50.874;6.466;2023-03-04T19:58:08;101129.63;;;4.07;100.00
63115;BME280;49208;50.874;6.466;2023-03-04T20:00:34;101127.00;;;4.16;96.98
63115;BME280;49208;50.874;6.466;2023-03-04T20:02:59;101125.22;;;4.18;95.54
63115;BME280;49208;50.874;6.466;2023-03-04T20:05:25;101120.84;;;4.16;95.11
63115;BME280;49208;50.874;6.466;2023-03-04T20:07:51;101120.84;;;4.22;93.21
63115;BME280;49208;50.874;6.466;2023-03-04T20:10:17;101119.09;;;4.22;92.44
63115;BME280;49208;50.874;6.466;2023-03-04T20:12:43;101113.81;;;4.29;91.09
63115;BME280;49208;50.874;6.466;2023-03-04T20:15:08;101121.75;;;4.30;91.47
63115;BME280;49208;50.874;6.466;2023-03-04T20:17:34;101126.13;;;4.27;90.86
63115;BME280;49208;50.874;6.466;2023-03-04T20:20:00;101123.50;;;4.23;91.34
63115;BME280;49208;50.874;6.466;2023-03-04T20:22:25;101110.31;;;4.23;90.91
63115;BME280;49208;50.874;6.466;2023-03-04T20:24:50;101117.34;;;4.21;90.96
63115;BME280;49208;50.874;6.466;2023-03-04T20:27:19;101117.31;;;4.18;91.51
63115;BME280;49208;50.874;6.466;2023-03-04T20:29:44;101119.97;;;4.14;92.03
63115;BME280;49208;50.874;6.466;2023-03-04T20:32:10;101115.56;;;4.11;92.14
63115;BME280;49208;50.874;6.466;2023-03-04T20:34:36;101119.06;;;4.09;92.03
63115;BME280;49208;50.874;6.466;2023-03-04T20:37:01;101127.00;;;4.12;91.47
63115;BME280;49208;50.874;6.466;2023-03-04T20:39:27;101115.56;;;4.10;91.35
63115;BME280;49208;50.874;6.466;2023-03-04T20:41:53;101111.19;;;4.07;91.58
63115;BME280;49208;50.874;6.466;2023-03-04T20:44:18;101113.81;;;4.05;91.57
63115;BME280;49208;50.874;6.466;2023-03-04T20:46:44;101112.91;;;4.03;91.47
63115;BME280;49208;50.874;6.466;2023-03-04T20:49:16;101119.03;;;4.02;91.31
63115;BME280;49208;50.874;6.466;2023-03-04T20:51:46;101117.31;;;4.01;91.62
63115;BME280;49208;50.874;6.466;2023-03-04T20:54:12;101112.03;;;4.03;91.38
63115;BME280;49208;50.874;6.466;2023-03-04T20:56:38;101118.16;;;4.00;91.63
63115;BME280;49208;50.874;6.466;2023-03-04T20:59:05;101113.78;;;3.98;91.81
63115;BME280;49208;50.874;6.466;2023-03-04T21:01:33;101118.16;;;3.96;92.08
63115;BME280;49208;50.874;6.466;2023-03-04T21:04:00;101108.53;;;3.95;91.98
63115;BME280;49208;50.874;6.466;2023-03-04T21:06:26;101108.50;;;3.92;91.40
63115;BME280;49208;50.874;6.466;2023-03-04T21:08:53;101110.25;;;3.91;91.73
63115;BME280;49208;50.874;6.466;2023-03-04T21:11:18;101112.03;;;3.91;91.61
63115;BME280;49208;50.874;6.466;2023-03-04T21:13:48;101111.13;;;3.87;91.94
63115;BME280;49208;50.874;6.466;2023-03-04T21:16:17;101103.22;;;3.85;91.70
63115;BME280;49208;50.874;6.466;2023-03-04T21:18:43;101097.94;;;3.85;91.08
63115;BME280;49208;50.874;6.466;2023-03-04T21:21:19;101099.72;;;3.85;91.11
63115;BME280;49208;50.874;6.466;2023-03-04T21:23:46;101104.09;;;3.84;91.42
63115;BME280;49208;50.874;6.466;2023-03-04T21:26:13;101097.06;;;3.83;91.56
63115;BME280;49208;50.874;6.466;2023-03-04T21:28:39;101104.06;;;3.81;91.18
63115;BME280;49208;50.874;6.466;2023-03-04T21:31:12;101101.44;;;3.81;91.02
63115;BME280;49208;50.874;6.466;2023-03-04T21:33:40;101104.97;;;3.80;90.95